createdAt,value
2018-03-22T00:00:18.058Z,98.70
2018-03-22T00:02:45.712Z,98.00
2018-03-22T00:05:13.475Z,97.80
2018-03-22T00:07:41.133Z,97.90
2018-03-22T00:10:08.749Z,97.80
2018-03-22T00:12:36.680Z,97.10
2018-03-22T00:15:04.631Z,97.00
2018-03-22T00:17:32.297Z,97.00
2018-03-22T00:19:59.914Z,94.80
2018-03-22T00:22:38.565Z,95.40
2018-03-22T00:25:06.546Z,95.00
2018-03-22T00:27:34.157Z,95.00
2018-03-22T00:30:01.817Z,94.20
2018-03-22T00:32:29.617Z,94.30
2018-03-22T00:34:57.289Z,94.00
2018-03-22T00:37:24.914Z,93.40
2018-03-22T00:39:52.537Z,93.60
2018-03-22T00:42:20.948Z,92.40
2018-03-22T00:44:48.593Z,92.40
2018-03-22T00:47:16.257Z,92.00
2018-03-22T00:49:43.873Z,91.80
2018-03-22T00:52:11.516Z,91.70
2018-03-22T00:54:39.124Z,91.90
2018-03-22T00:57:07.554Z,91.50
2018-03-22T00:59:35.319Z,91.00
2018-03-22T01:02:03.152Z,91.40
2018-03-22T01:04:31.474Z,91.30
2018-03-22T01:06:59.116Z,90.60
2018-03-22T01:09:27.334Z,91.30
2018-03-22T01:11:54.988Z,91.60
2018-03-22T01:14:23.368Z,91.40
2018-03-22T01:16:51.804Z,91.30
2018-03-22T01:19:19.418Z,90.90
2018-03-22T01:21:47.793Z,91.30
2018-03-22T01:24:15.454Z,91.90
2018-03-22T01:26:43.068Z,92.80
2018-03-22T01:29:10.719Z,94.40
2018-03-22T01:31:38.322Z,95.40
2018-03-22T01:34:06.741Z,98.00
2018-03-22T01:36:34.361Z,98.00
2018-03-22T01:39:02.785Z,99.60
2018-03-22T01:41:30.401Z,99.40
2018-03-22T01:43:58.045Z,99.90
2018-03-22T01:46:25.657Z,99.90
2018-03-22T01:48:53.318Z,99.90
2018-03-22T01:51:20.928Z,99.90
2018-03-22T01:53:50.680Z,99.90
2018-03-22T01:56:18.467Z,99.90
2018-03-22T01:58:46.122Z,99.90
2018-03-22T02:01:13.767Z,99.90
2018-03-22T02:03:41.387Z,99.90
2018-03-22T02:06:09.041Z,99.90
2018-03-22T02:08:36.656Z,99.90
2018-03-22T02:11:04.309Z,99.90
2018-03-22T02:13:31.933Z,99.90
2018-03-22T02:16:00.367Z,99.90
2018-03-22T02:18:28.028Z,99.90
2018-03-22T02:20:55.653Z,99.90
2018-03-22T02:23:23.317Z,99.90
2018-03-22T02:25:50.973Z,99.90
2018-03-22T02:28:18.593Z,99.90
2018-03-22T02:30:46.246Z,99.90
2018-03-22T02:33:13.906Z,99.90
2018-03-22T02:35:41.524Z,99.90
2018-03-22T02:38:10.266Z,99.90
2018-03-22T02:40:37.890Z,99.90
2018-03-22T02:43:06.094Z,99.90
2018-03-22T02:45:34.521Z,99.90
2018-03-22T02:48:02.203Z,99.90
2018-03-22T02:50:29.889Z,99.90
2018-03-22T02:52:57.507Z,99.90
2018-03-22T02:55:25.124Z,99.90
2018-03-22T02:57:53.850Z,99.90
2018-03-22T03:00:21.466Z,99.90
2018-03-22T03:02:49.315Z,99.90
2018-03-22T03:05:17.069Z,99.90
2018-03-22T03:07:44.829Z,99.90
2018-03-22T03:10:12.445Z,99.90
2018-03-22T03:12:40.104Z,99.90
2018-03-22T03:15:07.749Z,99.90
2018-03-22T03:17:35.405Z,99.90
2018-03-22T03:20:03.020Z,99.90
2018-03-22T03:22:30.674Z,99.90
2018-03-22T03:24:58.290Z,99.90
2018-03-22T03:27:26.720Z,99.90
2018-03-22T03:29:54.374Z,99.90
2018-03-22T03:32:22.017Z,99.90
2018-03-22T03:34:49.676Z,99.90
2018-03-22T03:37:17.308Z,99.90
2018-03-22T03:39:44.964Z,99.90
2018-03-22T03:42:12.585Z,99.90
2018-03-22T03:44:40.237Z,99.90
2018-03-22T03:47:07.853Z,99.90
2018-03-22T03:49:36.234Z,99.90
2018-03-22T03:52:03.885Z,99.90
2018-03-22T03:54:31.505Z,99.90
2018-03-22T03:56:59.936Z,99.90
2018-03-22T03:59:27.633Z,99.90
2018-03-22T04:01:55.254Z,99.90
2018-03-22T04:04:22.876Z,99.90
2018-03-22T04:06:51.294Z,99.90
2018-03-22T04:09:18.913Z,99.90
2018-03-22T04:11:46.589Z,99.90
2018-03-22T04:14:14.408Z,99.90
2018-03-22T04:16:42.061Z,99.90
2018-03-22T04:19:09.714Z,99.90
2018-03-22T04:21:37.377Z,99.90
2018-03-22T04:24:05.260Z,99.90
2018-03-22T04:26:32.877Z,99.90
2018-03-22T04:29:01.319Z,99.90
2018-03-22T04:31:28.979Z,99.90
2018-03-22T04:33:56.585Z,99.90
2018-03-22T04:36:24.292Z,99.90
2018-03-22T04:38:52.122Z,99.90
2018-03-22T04:41:20.265Z,99.90
2018-03-22T04:43:47.978Z,99.90
2018-03-22T04:46:15.593Z,99.90
2018-03-22T04:48:43.413Z,99.90
2018-03-22T04:51:11.177Z,99.90
2018-03-22T04:53:38.793Z,99.90
2018-03-22T04:56:06.436Z,99.90
2018-03-22T04:58:34.816Z,99.90
2018-03-22T05:01:03.249Z,99.90
2018-03-22T05:03:31.173Z,99.90
2018-03-22T05:05:58.804Z,99.90
2018-03-22T05:08:26.477Z,99.90
2018-03-22T05:10:54.957Z,99.90
2018-03-22T05:13:23.378Z,99.90
2018-03-22T05:15:50.992Z,99.90
2018-03-22T05:18:19.418Z,99.90
2018-03-22T05:20:47.041Z,99.90
2018-03-22T05:23:14.689Z,99.90
2018-03-22T05:25:42.935Z,99.90
2018-03-22T05:28:13.150Z,99.90
2018-03-22T05:30:41.021Z,99.90
2018-03-22T05:33:08.767Z,99.90
2018-03-22T05:35:36.599Z,99.90
2018-03-22T05:38:06.414Z,99.90
2018-03-22T05:40:37.480Z,99.90
2018-03-22T05:43:06.588Z,99.90
2018-03-22T05:45:35.745Z,99.90
2018-03-22T05:48:04.975Z,99.90
2018-03-22T05:50:34.041Z,99.90
2018-03-22T05:53:02.493Z,99.90
2018-03-22T05:55:30.156Z,99.90
2018-03-22T05:57:57.807Z,99.90
2018-03-22T06:00:25.520Z,99.90
2018-03-22T06:02:53.518Z,99.90
2018-03-22T06:05:21.144Z,99.90
2018-03-22T06:07:48.811Z,99.90
2018-03-22T06:10:16.679Z,99.90
2018-03-22T06:12:44.300Z,99.90
2018-03-22T06:15:12.389Z,99.90
2018-03-22T06:17:40.171Z,99.90
2018-03-22T06:20:07.831Z,99.90
2018-03-22T06:22:35.468Z,99.90
2018-03-22T06:25:03.153Z,99.90
2018-03-22T06:27:30.928Z,99.90
2018-03-22T06:29:59.615Z,99.90
2018-03-22T06:32:27.582Z,99.90
2018-03-22T06:34:55.348Z,99.90
2018-03-22T06:37:23.122Z,99.90
2018-03-22T06:39:50.780Z,99.90
2018-03-22T06:42:20.313Z,99.90
2018-03-22T06:44:47.980Z,99.90
2018-03-22T06:47:17.500Z,99.90
2018-03-22T06:49:45.298Z,99.90
2018-03-22T06:52:15.109Z,99.90
2018-03-22T06:54:42.910Z,99.90
2018-03-22T06:57:11.881Z,99.90
2018-03-22T06:59:39.816Z,99.90
2018-03-22T07:02:07.771Z,99.90
2018-03-22T07:04:35.387Z,99.90
2018-03-22T07:07:03.041Z,99.90
2018-03-22T07:09:30.678Z,99.90
2018-03-22T07:11:59.299Z,99.90
2018-03-22T07:14:26.933Z,99.90
2018-03-22T07:16:54.729Z,99.90
2018-03-22T07:19:22.422Z,99.90
2018-03-22T07:21:50.050Z,99.90
2018-03-22T07:24:17.709Z,99.90
2018-03-22T07:26:45.364Z,99.90
2018-03-22T07:29:13.000Z,99.90
2018-03-22T07:31:40.948Z,99.90
2018-03-22T07:34:09.373Z,99.90
2018-03-22T07:36:37.179Z,99.90
2018-03-22T07:39:07.474Z,99.90
2018-03-22T07:41:35.138Z,99.90
2018-03-22T07:44:11.736Z,99.90
2018-03-22T07:46:39.539Z,99.90
2018-03-22T07:49:07.262Z,99.90
2018-03-22T07:51:35.243Z,99.90
2018-03-22T07:54:03.397Z,99.90
2018-03-22T07:56:31.020Z,99.90
2018-03-22T07:58:58.708Z,99.90
2018-03-22T08:01:26.378Z,99.90
2018-03-22T08:03:54.055Z,99.90
2018-03-22T08:06:22.416Z,99.90
2018-03-22T08:08:50.283Z,99.90
2018-03-22T08:11:17.929Z,99.90
2018-03-22T08:13:45.603Z,99.90
2018-03-22T08:16:13.483Z,99.90
2018-03-22T08:18:41.119Z,99.90
2018-03-22T08:21:08.741Z,99.90
2018-03-22T08:23:36.408Z,99.90
2018-03-22T08:26:04.025Z,99.90
2018-03-22T08:28:31.988Z,99.90
2018-03-22T08:30:59.806Z,99.90
2018-03-22T08:33:27.440Z,99.90
2018-03-22T08:35:55.075Z,99.90
2018-03-22T08:38:23.436Z,99.90
2018-03-22T08:40:51.052Z,99.90
2018-03-22T08:43:19.309Z,99.90
2018-03-22T08:45:46.981Z,99.90
2018-03-22T08:48:14.802Z,99.90
2018-03-22T08:50:42.461Z,99.90
2018-03-22T08:53:11.156Z,99.90
2018-03-22T08:55:38.921Z,99.90
2018-03-22T08:58:06.550Z,99.90
2018-03-22T09:00:34.165Z,99.90
2018-03-22T09:03:02.761Z,99.90
2018-03-22T09:05:30.425Z,99.90
2018-03-22T09:07:58.356Z,99.90
2018-03-22T09:10:26.019Z,99.90
2018-03-22T09:12:55.147Z,99.90
2018-03-22T09:15:22.827Z,99.90
2018-03-22T09:17:50.481Z,99.90
2018-03-22T09:20:18.105Z,99.90
2018-03-22T09:22:45.765Z,99.90
2018-03-22T09:25:13.938Z,99.90
2018-03-22T09:27:42.632Z,99.90
2018-03-22T09:30:11.021Z,99.90
2018-03-22T09:32:38.676Z,99.90
2018-03-22T09:35:06.312Z,99.90
2018-03-22T09:37:33.972Z,99.90
2018-03-22T09:40:01.632Z,99.90
2018-03-22T09:42:29.296Z,99.90
2018-03-22T09:44:57.743Z,99.90
2018-03-22T09:47:25.414Z,99.90
2018-03-22T09:49:53.050Z,99.90
2018-03-22T09:52:21.126Z,99.90
2018-03-22T09:54:48.908Z,99.90
2018-03-22T09:57:16.961Z,99.90
2018-03-22T09:59:44.586Z,99.90
2018-03-22T10:02:12.305Z,99.90
2018-03-22T10:04:39.925Z,99.90
2018-03-22T10:07:07.586Z,99.90
2018-03-22T10:09:35.202Z,99.90
2018-03-22T10:12:03.651Z,99.90
2018-03-22T10:14:32.245Z,99.90
2018-03-22T10:16:59.897Z,99.90
2018-03-22T10:19:27.769Z,99.90
2018-03-22T10:21:55.424Z,99.90
2018-03-22T10:24:23.076Z,99.90
2018-03-22T10:26:50.724Z,99.90
2018-03-22T10:29:18.554Z,99.90
2018-03-22T10:31:46.933Z,99.90
2018-03-22T10:34:15.200Z,99.90
2018-03-22T10:36:43.116Z,99.90
2018-03-22T10:39:10.733Z,99.90
2018-03-22T10:41:38.554Z,99.90
2018-03-22T10:44:06.272Z,99.90
2018-03-22T10:46:34.367Z,99.90
2018-03-22T10:49:02.014Z,99.90
2018-03-22T10:51:29.924Z,99.90
2018-03-22T10:53:57.607Z,99.90
2018-03-22T10:56:25.285Z,99.90
2018-03-22T10:58:52.896Z,99.90
2018-03-22T11:01:26.797Z,99.90
2018-03-22T11:03:54.415Z,99.90
2018-03-22T11:06:22.106Z,99.90
2018-03-22T11:08:49.870Z,99.90
2018-03-22T11:11:17.540Z,99.90
2018-03-22T11:13:45.329Z,99.90
2018-03-22T11:16:12.978Z,99.90
2018-03-22T11:18:40.833Z,99.90
2018-03-22T11:21:08.488Z,99.90
2018-03-22T11:23:36.096Z,99.90
2018-03-22T11:26:04.521Z,99.90
2018-03-22T11:28:32.133Z,99.90
2018-03-22T11:30:59.775Z,99.90
2018-03-22T11:33:27.399Z,99.90
2018-03-22T11:35:55.054Z,99.90
2018-03-22T11:38:22.701Z,99.90
2018-03-22T11:40:50.344Z,99.90
2018-03-22T11:43:18.518Z,99.90
2018-03-22T11:45:46.225Z,99.90
2018-03-22T11:48:13.845Z,99.90
2018-03-22T11:50:41.500Z,99.90
2018-03-22T11:53:09.166Z,99.90
2018-03-22T11:55:36.808Z,99.90
2018-03-22T11:58:05.054Z,99.90
2018-03-22T12:00:32.797Z,99.90
2018-03-22T12:03:00.411Z,99.90
2018-03-22T12:05:28.031Z,99.90
2018-03-22T12:07:56.020Z,99.90
2018-03-22T12:10:23.693Z,99.90
2018-03-22T12:12:51.365Z,99.90
2018-03-22T12:15:19.021Z,99.90
2018-03-22T12:17:46.672Z,99.90
2018-03-22T12:20:14.321Z,99.90
2018-03-22T12:22:42.735Z,99.90
2018-03-22T12:25:10.932Z,99.90
2018-03-22T12:27:39.589Z,99.90
2018-03-22T12:30:07.249Z,99.90
2018-03-22T12:32:34.912Z,99.90
2018-03-22T12:35:02.762Z,99.90
2018-03-22T12:37:30.424Z,99.90
2018-03-22T12:39:58.086Z,99.90
2018-03-22T12:42:26.739Z,99.90
2018-03-22T12:44:54.349Z,99.90
2018-03-22T12:47:21.965Z,99.90
2018-03-22T12:49:50.380Z,99.90
2018-03-22T12:52:17.993Z,99.90
2018-03-22T12:54:45.642Z,99.90
2018-03-22T12:57:13.265Z,99.90
2018-03-22T12:59:41.499Z,99.90
2018-03-22T13:02:09.436Z,99.90
2018-03-22T13:04:37.114Z,99.90
2018-03-22T13:07:04.738Z,99.90
2018-03-22T13:09:32.933Z,99.90
2018-03-22T13:12:02.102Z,99.90
2018-03-22T13:14:29.714Z,99.90
2018-03-22T13:16:57.738Z,99.90
2018-03-22T13:19:25.398Z,99.90
2018-03-22T13:21:53.075Z,99.90
2018-03-22T13:24:20.754Z,99.90
2018-03-22T13:26:48.373Z,99.90
2018-03-22T13:29:16.028Z,99.90
2018-03-22T13:31:43.824Z,99.90
2018-03-22T13:34:12.116Z,99.90
2018-03-22T13:36:39.765Z,99.90
2018-03-22T13:39:07.409Z,99.90
2018-03-22T13:41:35.057Z,99.90
2018-03-22T13:44:02.668Z,99.90
2018-03-22T13:46:30.944Z,99.90
2018-03-22T13:48:58.596Z,99.90
2018-03-22T13:51:26.976Z,99.90
2018-03-22T13:53:55.393Z,99.90
2018-03-22T13:56:23.063Z,99.90
2018-03-22T13:58:50.679Z,99.90
2018-03-22T14:01:18.386Z,99.90
2018-03-22T14:03:46.036Z,99.90
2018-03-22T14:06:13.824Z,99.90
2018-03-22T14:08:41.436Z,99.90
2018-03-22T14:11:09.080Z,99.90
2018-03-22T14:13:37.503Z,99.90
2018-03-22T14:16:05.485Z,99.90
2018-03-22T14:18:33.152Z,99.90
2018-03-22T14:21:00.795Z,99.90
2018-03-22T14:23:28.501Z,99.90
2018-03-22T14:25:57.026Z,99.90
2018-03-22T14:28:24.682Z,99.90
2018-03-22T14:30:52.293Z,99.90
2018-03-22T14:33:19.944Z,99.90
2018-03-22T14:35:48.329Z,99.90
2018-03-22T14:38:16.763Z,99.90
2018-03-22T14:40:44.435Z,99.90
2018-03-22T14:43:12.092Z,99.90
2018-03-22T14:45:39.753Z,99.90
2018-03-22T14:48:07.365Z,99.90
2018-03-22T14:50:35.807Z,99.90
2018-03-22T14:53:03.464Z,99.90
2018-03-22T14:55:31.099Z,99.90
2018-03-22T14:57:58.748Z,99.90
2018-03-22T15:00:26.370Z,99.90
2018-03-22T15:02:54.029Z,99.90
2018-03-22T15:05:22.414Z,99.90
2018-03-22T15:07:50.829Z,99.90
2018-03-22T15:10:18.497Z,99.90
2018-03-22T15:12:46.125Z,99.90
2018-03-22T15:15:13.776Z,99.90
2018-03-22T15:17:42.189Z,99.90
2018-03-22T15:20:09.869Z,99.90
2018-03-22T15:22:37.860Z,99.90
2018-03-22T15:25:07.021Z,99.90
2018-03-22T15:27:34.794Z,99.90
2018-03-22T15:30:02.402Z,99.90
2018-03-22T15:32:30.301Z,99.90
2018-03-22T15:34:57.909Z,99.90
2018-03-22T15:37:25.561Z,99.90
2018-03-22T15:39:53.227Z,99.90
2018-03-22T15:42:20.894Z,99.90
2018-03-22T15:44:48.503Z,99.90
2018-03-22T15:47:16.740Z,99.90
2018-03-22T15:49:44.355Z,99.90
2018-03-22T15:52:12.012Z,99.90
2018-03-22T15:54:39.632Z,99.90
2018-03-22T15:57:07.272Z,99.90
2018-03-22T15:59:35.477Z,99.90
2018-03-22T16:02:03.137Z,99.90
2018-03-22T16:04:30.760Z,99.90
2018-03-22T16:06:58.405Z,99.90
2018-03-22T16:09:26.011Z,99.90
2018-03-22T16:11:53.667Z,99.90
2018-03-22T16:14:21.308Z,99.90
2018-03-22T16:16:49.744Z,99.90
2018-03-22T16:19:17.356Z,99.90
2018-03-22T16:21:44.973Z,99.90
2018-03-22T16:24:12.730Z,99.90
2018-03-22T16:26:40.350Z,99.90
2018-03-22T16:29:08.014Z,99.90
2018-03-22T16:31:35.630Z,99.90
2018-03-22T16:34:03.285Z,99.90
2018-03-22T16:36:31.662Z,99.90
2018-03-22T16:38:59.325Z,99.90
2018-03-22T16:41:26.949Z,99.90
2018-03-22T16:43:54.737Z,99.90
2018-03-22T16:46:22.397Z,99.90
2018-03-22T16:48:50.073Z,99.90
2018-03-22T16:51:18.646Z,99.90
2018-03-22T16:53:46.293Z,99.90
2018-03-22T16:56:13.950Z,99.90
2018-03-22T16:58:41.607Z,99.90
2018-03-22T17:01:09.218Z,99.90
2018-03-22T17:03:36.873Z,99.90
2018-03-22T17:06:05.298Z,99.90
2018-03-22T17:08:32.981Z,99.90
2018-03-22T17:11:00.601Z,99.90
2018-03-22T17:13:28.213Z,99.90
2018-03-22T17:15:55.855Z,99.90
2018-03-22T17:18:23.466Z,99.90
2018-03-22T17:20:51.144Z,99.90
2018-03-22T17:23:18.793Z,99.90
2018-03-22T17:25:49.236Z,99.90
2018-03-22T17:28:18.294Z,99.90
2018-03-22T17:30:45.964Z,99.90
2018-03-22T17:33:17.517Z,99.90
2018-03-22T17:35:45.222Z,99.90
2018-03-22T17:38:14.032Z,99.90
2018-03-22T17:40:43.518Z,99.90
2018-03-22T17:43:12.810Z,99.90
2018-03-22T17:45:41.442Z,99.90
2018-03-22T17:48:12.402Z,99.90
2018-03-22T17:50:40.313Z,99.90
2018-03-22T17:53:07.965Z,99.90
2018-03-22T17:55:42.583Z,99.90
2018-03-22T17:58:12.514Z,99.90
2018-03-22T18:00:44.678Z,99.90
2018-03-22T18:03:12.641Z,99.90
2018-03-22T18:05:43.312Z,99.90
2018-03-22T18:08:11.461Z,99.90
2018-03-22T18:10:39.309Z,99.90
2018-03-22T18:13:06.916Z,99.90
2018-03-22T18:15:34.581Z,99.90
2018-03-22T18:18:02.285Z,99.90
2018-03-22T18:20:30.257Z,99.90
2018-03-22T18:22:57.912Z,99.90
2018-03-22T18:25:25.577Z,99.90
2018-03-22T18:27:53.233Z,99.90
2018-03-22T18:30:20.886Z,99.90
2018-03-22T18:32:48.521Z,99.90
2018-03-22T18:35:16.179Z,99.90
2018-03-22T18:37:43.789Z,99.90
2018-03-22T18:40:11.454Z,99.90
2018-03-22T18:42:39.112Z,99.90
2018-03-22T18:45:07.546Z,99.90
2018-03-22T18:47:35.471Z,99.90
2018-03-22T18:50:06.463Z,99.90
2018-03-22T18:52:34.093Z,99.90
2018-03-22T18:55:01.750Z,99.90
2018-03-22T18:57:29.405Z,99.90
2018-03-22T18:59:57.022Z,99.90
2018-03-22T19:02:24.782Z,99.90
2018-03-22T19:04:52.409Z,99.90
2018-03-22T19:07:20.092Z,99.90
2018-03-22T19:09:47.717Z,99.90
2018-03-22T19:12:15.532Z,99.90
2018-03-22T19:14:43.157Z,99.90
2018-03-22T19:17:10.846Z,99.90
2018-03-22T19:19:38.544Z,99.90
2018-03-22T19:22:06.936Z,99.90
2018-03-22T19:24:34.738Z,99.90
2018-03-22T19:27:04.154Z,99.90
2018-03-22T19:29:32.517Z,99.90
2018-03-22T19:32:01.593Z,99.90
2018-03-22T19:34:29.415Z,99.90
2018-03-22T19:36:58.966Z,99.90
2018-03-22T19:39:26.586Z,99.90
2018-03-22T19:41:54.522Z,99.90
2018-03-22T19:44:22.189Z,99.90
2018-03-22T19:46:50.074Z,99.90
2018-03-22T19:49:20.004Z,99.90
2018-03-22T19:51:47.812Z,99.90
2018-03-22T19:54:15.488Z,99.90
2018-03-22T19:56:43.864Z,99.90
2018-03-22T19:59:12.357Z,99.90
2018-03-22T20:01:40.125Z,99.90
2018-03-22T20:04:08.551Z,99.90
2018-03-22T20:06:36.799Z,99.90
2018-03-22T20:09:05.225Z,99.90
2018-03-22T20:11:32.900Z,99.90
2018-03-22T20:14:00.586Z,99.90
2018-03-22T20:16:28.232Z,99.90
2018-03-22T20:18:56.764Z,99.90
2018-03-22T20:21:24.413Z,99.90
2018-03-22T20:23:52.073Z,99.90
2018-03-22T20:26:19.875Z,99.90
2018-03-22T20:28:47.492Z,99.90
2018-03-22T20:31:15.141Z,99.90
2018-03-22T20:33:42.800Z,99.90
2018-03-22T20:36:12.457Z,99.90
2018-03-22T20:38:40.836Z,99.90
2018-03-22T20:41:08.449Z,99.90
2018-03-22T20:43:36.100Z,99.90
2018-03-22T20:46:04.316Z,99.90
2018-03-22T20:48:31.929Z,99.90
2018-03-22T20:50:59.654Z,99.90
2018-03-22T20:53:27.270Z,99.90
2018-03-22T20:55:54.919Z,99.90
2018-03-22T20:58:22.627Z,99.90
2018-03-22T21:00:50.301Z,99.90
2018-03-22T21:03:17.925Z,99.90
2018-03-22T21:05:45.611Z,99.90
2018-03-22T21:08:13.308Z,99.90
2018-03-22T21:10:40.927Z,99.90
2018-03-22T21:13:08.536Z,99.90
2018-03-22T21:15:36.985Z,99.90
2018-03-22T21:18:04.593Z,99.90
2018-03-22T21:20:32.405Z,99.90
2018-03-22T21:23:00.241Z,99.90
2018-03-22T21:25:28.021Z,99.90
2018-03-22T21:27:55.686Z,99.90
2018-03-22T21:30:24.039Z,99.90
2018-03-22T21:32:51.668Z,99.90
2018-03-22T21:35:19.329Z,99.90
2018-03-22T21:37:47.897Z,99.90
2018-03-22T21:40:15.553Z,99.90
2018-03-22T21:42:43.214Z,99.90
2018-03-22T21:45:10.864Z,99.90
2018-03-22T21:47:38.477Z,99.90
2018-03-22T21:50:06.145Z,99.90
2018-03-22T21:52:52.678Z,99.90
2018-03-22T21:55:20.352Z,99.90
2018-03-22T21:57:48.008Z,99.90
2018-03-22T22:00:16.032Z,99.90
2018-03-22T22:02:43.644Z,99.90
2018-03-22T22:05:11.257Z,99.90
2018-03-22T22:07:38.912Z,99.90
2018-03-22T22:10:06.525Z,99.90
2018-03-22T22:12:34.266Z,99.90
2018-03-22T22:15:01.829Z,99.90
2018-03-22T22:17:29.482Z,99.90
2018-03-22T22:19:57.092Z,99.90
2018-03-22T22:22:24.737Z,99.90
2018-03-22T22:24:52.347Z,99.90
2018-03-22T22:27:20.005Z,99.90
2018-03-22T22:29:47.742Z,99.90
2018-03-22T22:32:15.402Z,99.90
2018-03-22T22:34:43.010Z,99.90
2018-03-22T22:37:10.870Z,99.90
2018-03-22T22:39:38.485Z,99.90
2018-03-22T22:42:06.141Z,99.90
2018-03-22T22:44:33.754Z,99.90
2018-03-22T22:47:01.410Z,99.90
2018-03-22T22:49:29.025Z,99.90
2018-03-22T22:51:56.833Z,99.90
2018-03-22T22:54:24.486Z,99.90
2018-03-22T22:56:52.137Z,99.90
2018-03-22T22:59:19.785Z,99.90
2018-03-22T23:01:47.425Z,99.90
2018-03-22T23:04:15.121Z,99.90
2018-03-22T23:06:42.740Z,99.90
2018-03-22T23:09:10.344Z,99.90
2018-03-22T23:11:37.992Z,99.90
2018-03-22T23:14:05.612Z,99.90
2018-03-22T23:16:33.265Z,99.90
2018-03-22T23:19:01.698Z,99.90
2018-03-22T23:21:29.363Z,99.90
2018-03-22T23:23:56.974Z,99.90
2018-03-22T23:26:24.636Z,99.90
2018-03-22T23:28:52.249Z,99.90
2018-03-22T23:31:19.856Z,99.90
2018-03-22T23:33:48.270Z,99.90
2018-03-22T23:36:16.037Z,99.90
2018-03-22T23:38:43.684Z,99.90
2018-03-22T23:41:11.294Z,99.90
2018-03-22T23:43:39.507Z,99.90
2018-03-22T23:46:07.401Z,99.90
2018-03-22T23:48:35.054Z,99.90
2018-03-22T23:51:03.486Z,99.90
2018-03-22T23:53:32.164Z,99.90
2018-03-22T23:56:00.532Z,99.90
2018-03-22T23:58:28.177Z,99.90
